createdAt,value
2023-05-25T00:00:31.466Z,19.13
2023-05-25T00:02:59.513Z,22.30
2023-05-25T00:05:27.721Z,18.55
2023-05-25T00:07:55.395Z,18.88
2023-05-25T00:10:24.094Z,21.58
2023-05-25T00:12:51.891Z,21.80
2023-05-25T00:15:20.099Z,17.48
2023-05-25T00:17:49.034Z,17.85
2023-05-25T00:20:16.310Z,17.77
2023-05-25T00:22:45.043Z,20.48
2023-05-25T00:25:12.351Z,17.17
2023-05-25T00:27:39.251Z,19.60
2023-05-25T00:30:06.876Z,18.45
2023-05-25T00:32:34.044Z,17.58
2023-05-25T00:35:01.234Z,18.60
2023-05-25T00:37:28.157Z,15.52
2023-05-25T00:39:56.146Z,23.55
2023-05-25T00:42:24.065Z,20.88
2023-05-25T00:44:51.100Z,18.80
2023-05-25T00:47:18.116Z,18.15
2023-05-25T00:49:46.181Z,20.00
2023-05-25T00:52:13.839Z,21.20
2023-05-25T00:54:40.712Z,19.58
2023-05-25T00:57:08.282Z,17.63
2023-05-25T00:59:40.795Z,23.27
2023-05-25T01:02:16.238Z,19.13
2023-05-25T01:04:54.454Z,18.85
2023-05-25T01:07:23.365Z,17.75
2023-05-25T01:09:58.172Z,19.58
2023-05-25T01:12:28.901Z,23.00
2023-05-25T01:14:57.050Z,16.38
2023-05-25T01:17:26.579Z,18.20
2023-05-25T01:20:08.864Z,17.13
2023-05-25T01:22:58.424Z,20.67
2023-05-25T01:25:40.140Z,17.20
2023-05-25T01:28:11.971Z,28.30
2023-05-25T01:30:42.142Z,21.42
2023-05-25T01:33:10.939Z,22.10
2023-05-25T01:35:40.330Z,26.38
2023-05-25T01:38:08.412Z,18.60
2023-05-25T01:40:35.315Z,27.45
2023-05-25T01:43:02.635Z,28.70
2023-05-25T01:45:30.091Z,22.38
2023-05-25T01:48:18.682Z,22.52
2023-05-25T01:50:58.082Z,18.98
2023-05-25T01:53:54.173Z,21.10
2023-05-25T01:56:23.268Z,23.77
2023-05-25T01:58:51.292Z,21.42
2023-05-25T02:01:19.453Z,20.10
2023-05-25T02:03:51.566Z,20.10
2023-05-25T02:06:19.050Z,20.40
2023-05-25T02:08:45.988Z,23.77
2023-05-25T02:11:16.803Z,21.30
2023-05-25T02:13:45.900Z,18.77
2023-05-25T02:16:12.800Z,22.13
2023-05-25T02:18:44.836Z,20.60
2023-05-25T02:21:12.792Z,17.52
2023-05-25T02:23:39.687Z,20.98
2023-05-25T02:26:06.643Z,22.38
2023-05-25T02:28:34.250Z,19.65
2023-05-25T02:31:01.466Z,16.48
2023-05-25T02:33:28.359Z,24.73
2023-05-25T02:35:56.540Z,14.45
2023-05-25T02:38:23.452Z,21.55
2023-05-25T02:40:50.846Z,24.60
2023-05-25T02:43:20.001Z,23.05
2023-05-25T02:45:46.908Z,17.55
2023-05-25T02:48:13.792Z,18.80
2023-05-25T02:50:41.496Z,17.05
2023-05-25T02:53:12.388Z,18.60
2023-05-25T02:55:40.573Z,16.13
2023-05-25T02:58:10.352Z,15.25
2023-05-25T03:01:18.232Z,17.25
2023-05-25T03:03:52.706Z,23.10
2023-05-25T03:06:23.041Z,29.52
2023-05-25T03:08:53.893Z,22.15
2023-05-25T03:11:20.953Z,17.90
2023-05-25T03:13:48.784Z,19.75
2023-05-25T03:16:17.260Z,19.05
2023-05-25T03:18:45.365Z,24.58
2023-05-25T03:21:12.387Z,18.63
2023-05-25T03:23:39.391Z,20.25
2023-05-25T03:26:08.436Z,19.58
2023-05-25T03:28:35.409Z,17.75
2023-05-25T03:31:02.474Z,23.00
2023-05-25T03:33:29.669Z,24.38
2023-05-25T03:35:56.622Z,18.98
2023-05-25T03:38:23.678Z,19.92
2023-05-25T03:40:50.737Z,25.70
2023-05-25T03:43:18.721Z,20.33
2023-05-25T03:45:48.063Z,27.38
2023-05-25T03:48:16.062Z,21.02
2023-05-25T03:50:43.028Z,21.77
2023-05-25T03:53:09.951Z,26.95
2023-05-25T03:55:36.881Z,21.85
2023-05-25T03:58:03.831Z,23.65
2023-05-25T04:00:30.833Z,29.65
2023-05-25T04:02:58.903Z,25.67
2023-05-25T04:05:26.680Z,21.95
2023-05-25T04:07:53.621Z,25.52
2023-05-25T04:10:20.729Z,20.33
2023-05-25T04:12:47.676Z,23.45
2023-05-25T04:15:16.016Z,20.95
2023-05-25T04:17:55.115Z,28.15
2023-05-25T04:20:22.786Z,22.17
2023-05-25T04:22:50.009Z,17.83
2023-05-25T04:25:17.068Z,22.92
2023-05-25T04:27:46.714Z,23.08
2023-05-25T04:30:16.301Z,25.20
2023-05-25T04:33:02.973Z,19.23
2023-05-25T04:35:36.784Z,25.13
2023-05-25T04:38:04.966Z,21.63
2023-05-25T04:40:33.309Z,21.45
2023-05-25T04:43:00.783Z,22.00
2023-05-25T04:45:29.311Z,21.55
2023-05-25T04:47:58.240Z,19.10
2023-05-25T04:50:25.227Z,22.00
2023-05-25T04:52:52.994Z,22.85
2023-05-25T04:55:19.874Z,18.75
2023-05-25T04:57:48.143Z,22.83
2023-05-25T05:00:15.565Z,19.42
2023-05-25T05:02:44.187Z,19.45
2023-05-25T05:05:11.130Z,28.58
2023-05-25T05:07:38.885Z,19.75
2023-05-25T05:10:06.537Z,18.40
2023-05-25T05:12:36.051Z,26.52
2023-05-25T05:15:03.178Z,19.88
2023-05-25T05:17:31.204Z,17.08
2023-05-25T05:19:58.704Z,19.50
2023-05-25T05:22:25.695Z,27.30
2023-05-25T05:24:52.566Z,24.50
2023-05-25T05:27:24.365Z,23.48
2023-05-25T05:29:56.694Z,18.30
2023-05-25T05:32:23.688Z,22.95
2023-05-25T05:34:50.785Z,19.25
2023-05-25T05:37:40.940Z,22.23
2023-05-25T05:40:10.787Z,22.05
2023-05-25T05:42:41.124Z,23.08
2023-05-25T05:45:09.198Z,25.75
2023-05-25T05:47:36.198Z,22.15
2023-05-25T05:50:03.556Z,21.02
2023-05-25T05:52:30.972Z,18.48
2023-05-25T05:54:57.926Z,22.27
2023-05-25T05:57:24.840Z,19.50
2023-05-25T05:59:51.880Z,23.65
2023-05-25T06:02:19.845Z,21.98
2023-05-25T06:04:47.217Z,23.42
2023-05-25T06:07:14.130Z,22.83
2023-05-25T06:09:41.418Z,21.40
2023-05-25T06:12:09.247Z,17.98
2023-05-25T06:14:36.494Z,20.45
2023-05-25T06:17:05.205Z,19.33
2023-05-25T06:19:32.174Z,26.63
2023-05-25T06:21:59.086Z,18.70
2023-05-25T06:24:26.040Z,20.45
2023-05-25T06:26:52.937Z,18.65
2023-05-25T06:29:20.764Z,17.08
2023-05-25T06:31:47.722Z,28.20
2023-05-25T06:34:14.845Z,22.23
2023-05-25T06:36:42.474Z,17.60
2023-05-25T06:39:10.319Z,22.67
2023-05-25T06:41:39.298Z,20.42
2023-05-25T06:44:07.086Z,19.65
2023-05-25T06:46:42.025Z,21.13
2023-05-25T06:49:09.752Z,17.20
2023-05-25T06:51:37.263Z,15.23
2023-05-25T06:54:04.304Z,15.43
2023-05-25T06:56:31.346Z,11.48
2023-05-25T06:58:58.270Z,14.57
2023-05-25T07:01:25.241Z,15.30
2023-05-25T07:03:52.183Z,16.30
2023-05-25T07:06:21.222Z,14.50
2023-05-25T07:08:48.145Z,19.05
2023-05-25T07:11:15.037Z,14.88
2023-05-25T07:13:41.976Z,13.85
2023-05-25T07:16:08.921Z,19.05
2023-05-25T07:18:39.551Z,17.23
2023-05-25T07:21:09.946Z,20.33
2023-05-25T07:23:37.672Z,16.65
2023-05-25T07:26:06.083Z,18.77
2023-05-25T07:28:33.311Z,15.90
2023-05-25T07:31:00.287Z,15.73
2023-05-25T07:33:27.254Z,17.35
2023-05-25T07:35:54.129Z,17.20
2023-05-25T07:38:21.020Z,14.07
2023-05-25T07:40:49.181Z,14.27
2023-05-25T07:43:16.149Z,13.65
2023-05-25T07:45:43.241Z,11.52
2023-05-25T07:48:10.436Z,16.42
2023-05-25T07:50:37.370Z,15.57
2023-05-25T07:53:04.311Z,14.57
2023-05-25T07:55:31.163Z,10.43
2023-05-25T07:57:58.122Z,10.30
2023-05-25T08:00:25.277Z,11.45
2023-05-25T08:02:52.441Z,9.18
2023-05-25T08:05:19.555Z,10.88
2023-05-25T08:07:46.722Z,12.07
2023-05-25T08:10:13.747Z,11.45
2023-05-25T08:12:48.932Z,10.95
2023-05-25T08:15:17.410Z,10.30
2023-05-25T08:17:44.908Z,9.52
2023-05-25T08:20:12.519Z,9.02
2023-05-25T08:22:39.435Z,8.55
2023-05-25T08:25:06.994Z,11.20
2023-05-25T08:27:35.706Z,8.15
2023-05-25T08:30:05.989Z,9.40
2023-05-25T08:32:33.115Z,10.10
2023-05-25T08:35:00.153Z,7.50
2023-05-25T08:37:27.043Z,22.25
2023-05-25T08:39:53.934Z,9.55
2023-05-25T08:42:20.996Z,9.05
2023-05-25T08:44:48.031Z,8.80
2023-05-25T08:47:17.824Z,17.50
2023-05-25T08:49:45.493Z,28.27
2023-05-25T08:52:15.418Z,31.80
2023-05-25T08:54:45.076Z,10.35
2023-05-25T08:57:29.610Z,8.23
2023-05-25T09:00:10.956Z,11.32
2023-05-25T09:02:53.300Z,7.95
2023-05-25T09:05:21.515Z,6.75
2023-05-25T09:07:49.860Z,9.23
2023-05-25T09:10:17.251Z,6.63
2023-05-25T09:12:44.249Z,7.85
2023-05-25T09:15:12.503Z,7.85
2023-05-25T09:17:41.453Z,7.72
2023-05-25T09:20:11.178Z,8.13
2023-05-25T09:22:38.433Z,6.28
2023-05-25T09:25:10.853Z,7.13
2023-05-25T09:27:38.562Z,9.15
2023-05-25T09:30:07.284Z,9.70
2023-05-25T09:32:35.053Z,4.80
2023-05-25T09:35:15.625Z,5.35
2023-05-25T09:37:43.543Z,11.80
2023-05-25T09:40:11.265Z,6.70
2023-05-25T09:42:38.921Z,6.13
2023-05-25T09:45:06.944Z,7.72
2023-05-25T09:47:37.321Z,12.13
2023-05-25T09:50:04.938Z,14.70
2023-05-25T09:52:31.931Z,7.18
2023-05-25T09:54:59.179Z,15.88
2023-05-25T09:57:27.898Z,10.43
2023-05-25T09:59:54.957Z,8.75
2023-05-25T10:02:22.236Z,15.35
2023-05-25T10:04:49.263Z,10.02
2023-05-25T10:07:17.368Z,10.00
2023-05-25T10:09:46.485Z,10.30
2023-05-25T10:12:17.546Z,15.52
2023-05-25T10:14:46.138Z,15.32
2023-05-25T10:17:15.140Z,16.50
2023-05-25T10:19:53.613Z,14.80
2023-05-25T10:22:25.483Z,18.88
2023-05-25T10:24:58.240Z,12.88
2023-05-25T10:27:34.775Z,14.88
2023-05-25T10:30:02.786Z,12.52
2023-05-25T10:32:30.915Z,13.52
2023-05-25T10:34:59.241Z,18.58
2023-05-25T10:37:28.419Z,13.32
2023-05-25T10:39:58.182Z,11.25
2023-05-25T10:42:27.722Z,13.13
2023-05-25T10:44:56.545Z,12.50
2023-05-25T10:47:24.555Z,11.02
2023-05-25T10:49:56.249Z,12.32
2023-05-25T10:52:31.411Z,17.98
2023-05-25T10:55:02.043Z,10.50
2023-05-25T10:57:29.138Z,16.58
2023-05-25T11:00:02.291Z,10.88
2023-05-25T11:02:29.902Z,13.98
2023-05-25T11:05:27.887Z,14.52
2023-05-25T11:07:59.458Z,14.95
2023-05-25T11:10:41.576Z,19.42
2023-05-25T11:13:33.836Z,15.75
2023-05-25T11:16:20.009Z,18.13
2023-05-25T11:18:58.954Z,19.08
2023-05-25T11:21:32.308Z,17.83
2023-05-25T11:24:06.669Z,19.23
2023-05-25T11:26:34.593Z,22.40
2023-05-25T11:29:11.941Z,22.00
2023-05-25T11:31:42.442Z,18.60
2023-05-25T11:34:12.277Z,17.88
2023-05-25T11:36:39.670Z,14.52
2023-05-25T11:39:16.964Z,16.95
2023-05-25T11:41:56.066Z,18.42
2023-05-25T11:44:31.758Z,16.80
2023-05-25T11:49:29.119Z,18.38
2023-05-25T11:51:57.662Z,22.77
2023-05-25T11:54:29.316Z,20.58
2023-05-25T11:56:59.353Z,16.40
2023-05-25T11:59:29.776Z,21.70
2023-05-25T12:02:04.262Z,18.92
2023-05-25T12:04:34.077Z,24.67
2023-05-25T12:07:08.084Z,19.60
2023-05-25T12:09:36.882Z,15.15
2023-05-25T12:12:04.436Z,19.48
2023-05-25T12:14:32.872Z,17.48
2023-05-25T12:16:59.910Z,14.80
2023-05-25T12:19:27.166Z,20.10
2023-05-25T12:21:54.203Z,21.85
2023-05-25T12:24:21.270Z,23.73
2023-05-25T12:26:49.055Z,19.75
2023-05-25T12:29:16.527Z,14.82
2023-05-25T12:31:43.613Z,15.30
2023-05-25T12:34:20.987Z,18.30
2023-05-25T12:36:50.703Z,19.95
2023-05-25T12:39:39.553Z,22.27
2023-05-25T12:42:14.331Z,19.40
2023-05-25T12:44:42.630Z,9.80
2023-05-25T12:47:12.260Z,17.90
2023-05-25T12:49:41.082Z,17.45
2023-05-25T12:52:08.854Z,22.52
2023-05-25T12:54:36.863Z,25.08
2023-05-25T12:57:11.436Z,23.55
2023-05-25T12:59:39.241Z,26.27
2023-05-25T13:02:07.563Z,24.05
2023-05-25T13:04:36.987Z,15.63
2023-05-25T13:07:05.103Z,21.65
2023-05-25T13:09:32.904Z,22.63
2023-05-25T13:12:00.709Z,25.83
2023-05-25T13:14:27.963Z,27.05
2023-05-25T13:16:55.076Z,23.27
2023-05-25T13:19:24.415Z,19.02
2023-05-25T13:21:52.324Z,22.63
2023-05-25T13:24:19.765Z,26.25
2023-05-25T13:26:49.894Z,18.63
2023-05-25T13:29:18.066Z,17.98
2023-05-25T13:31:45.332Z,20.55
2023-05-25T13:34:12.552Z,21.25
2023-05-25T13:36:39.386Z,24.17
2023-05-25T13:39:07.379Z,19.58
2023-05-25T13:41:34.340Z,30.98
2023-05-25T13:44:01.315Z,22.30
2023-05-25T13:46:34.789Z,22.10
2023-05-25T13:49:03.572Z,23.15
2023-05-25T13:51:30.621Z,26.63
2023-05-25T13:53:57.578Z,20.00
2023-05-25T13:56:24.473Z,16.90
2023-05-25T13:58:52.055Z,26.48
2023-05-25T14:01:19.000Z,27.83
2023-05-25T14:03:46.449Z,26.85
2023-05-25T14:06:13.489Z,23.95
2023-05-25T14:08:40.412Z,24.65
2023-05-25T14:11:07.362Z,39.47
2023-05-25T14:13:36.202Z,27.33
2023-05-25T14:16:03.848Z,27.40
2023-05-25T14:18:30.908Z,22.33
2023-05-25T14:20:57.994Z,17.10
2023-05-25T14:23:25.009Z,20.50
2023-05-25T14:25:52.020Z,29.05
2023-05-25T14:28:18.978Z,24.60
2023-05-25T14:30:45.859Z,21.73
2023-05-25T14:33:14.560Z,27.42
2023-05-25T14:35:44.849Z,27.23
2023-05-25T14:38:11.938Z,29.15
2023-05-25T14:40:38.877Z,30.95
2023-05-25T14:43:05.832Z,27.13
2023-05-25T14:45:32.674Z,22.90
2023-05-25T14:48:11.972Z,31.25
2023-05-25T14:50:44.466Z,28.48
2023-05-25T14:53:11.906Z,24.75
2023-05-25T14:55:38.889Z,26.88
2023-05-25T14:58:05.751Z,30.25
2023-05-25T15:00:32.670Z,32.40
2023-05-25T15:02:59.677Z,30.00
2023-05-25T15:05:26.597Z,28.98
2023-05-25T15:07:53.496Z,31.40
2023-05-25T15:10:20.504Z,37.40
2023-05-25T15:12:47.521Z,34.70
2023-05-25T15:15:15.318Z,38.80
2023-05-25T15:17:42.296Z,34.42
2023-05-25T15:20:09.780Z,33.55
2023-05-25T15:22:36.842Z,30.02
2023-05-25T15:25:04.543Z,32.83
2023-05-25T15:27:32.246Z,32.42
2023-05-25T15:29:59.228Z,43.25
2023-05-25T15:32:26.254Z,37.55
2023-05-25T15:34:53.319Z,35.47
2023-05-25T15:37:20.329Z,38.38
2023-05-25T15:39:47.259Z,37.90
2023-05-25T15:42:14.136Z,38.83
2023-05-25T15:44:41.199Z,28.85
2023-05-25T15:47:08.066Z,37.72
2023-05-25T15:49:37.058Z,44.78
2023-05-25T15:52:04.397Z,39.60
2023-05-25T15:54:31.477Z,38.65
2023-05-25T15:56:58.412Z,36.40
2023-05-25T15:59:25.345Z,41.20
2023-05-25T16:01:52.319Z,40.92
2023-05-25T16:04:19.483Z,28.35
2023-05-25T16:06:48.562Z,32.25
2023-05-25T16:09:16.299Z,33.95
2023-05-25T16:11:43.275Z,34.10
2023-05-25T16:14:10.338Z,43.55
2023-05-25T16:16:37.262Z,29.35
2023-05-25T16:19:04.379Z,27.10
2023-05-25T16:21:31.295Z,33.90
2023-05-25T16:23:58.298Z,36.60
2023-05-25T16:26:25.158Z,36.08
2023-05-25T16:28:52.380Z,33.42
2023-05-25T16:31:19.312Z,34.25
2023-05-25T16:33:46.356Z,32.67
2023-05-25T16:36:14.193Z,34.08
2023-05-25T16:38:41.643Z,32.95
2023-05-25T16:41:08.540Z,40.38
2023-05-25T16:43:35.724Z,34.60
2023-05-25T16:46:02.644Z,29.23
2023-05-25T16:48:32.374Z,38.30
2023-05-25T16:50:59.327Z,33.78
2023-05-25T16:53:26.302Z,26.58
2023-05-25T16:55:53.240Z,35.03
2023-05-25T16:58:20.278Z,31.90
2023-05-25T17:00:47.207Z,31.88
2023-05-25T17:03:14.479Z,25.63
2023-05-25T17:05:41.492Z,31.17
2023-05-25T17:08:08.410Z,29.80
2023-05-25T17:10:35.251Z,31.02
2023-05-25T17:13:02.236Z,37.05
2023-05-25T17:15:29.097Z,34.95
2023-05-25T17:17:56.058Z,31.77
2023-05-25T17:20:23.068Z,37.38
2023-05-25T17:22:50.061Z,29.83
2023-05-25T17:25:16.996Z,22.45
2023-05-25T17:27:43.969Z,27.73
2023-05-25T17:30:11.241Z,39.65
2023-05-25T17:32:40.083Z,41.67
2023-05-25T17:35:08.286Z,31.80
2023-05-25T17:37:35.641Z,36.03
2023-05-25T17:40:02.500Z,41.80
2023-05-25T17:42:29.464Z,36.88
2023-05-25T17:44:56.983Z,32.30
2023-05-25T17:47:25.514Z,35.58
2023-05-25T17:49:52.514Z,31.70
2023-05-25T17:52:19.448Z,34.92
2023-05-25T17:54:46.542Z,36.65
2023-05-25T17:57:13.499Z,37.22
2023-05-25T17:59:40.329Z,45.25
2023-05-25T18:02:07.437Z,29.48
2023-05-25T18:04:34.479Z,39.15
2023-05-25T18:07:01.443Z,38.65
2023-05-25T18:09:28.331Z,38.05
2023-05-25T18:11:56.205Z,43.92
2023-05-25T18:14:23.048Z,42.35
2023-05-25T18:16:50.027Z,35.63
2023-05-25T18:19:18.508Z,45.85
2023-05-25T18:21:45.517Z,39.05
2023-05-25T18:24:12.362Z,32.35
2023-05-25T18:26:41.636Z,42.33
2023-05-25T18:29:08.568Z,41.25
2023-05-25T18:31:35.740Z,47.00
2023-05-25T18:34:02.648Z,42.53
2023-05-25T18:36:29.608Z,41.45
2023-05-25T18:38:56.468Z,33.40
2023-05-25T18:41:24.493Z,39.45
2023-05-25T18:43:51.461Z,31.42
2023-05-25T18:46:18.742Z,43.25
2023-05-25T18:48:49.035Z,37.95
2023-05-25T18:51:17.130Z,55.25
2023-05-25T18:53:44.874Z,38.30
2023-05-25T18:56:11.961Z,46.13
2023-05-25T18:58:38.870Z,42.88
2023-05-25T19:01:05.826Z,39.10
2023-05-25T19:03:33.359Z,38.35
2023-05-25T19:06:00.355Z,39.20
2023-05-25T19:08:27.189Z,46.10
2023-05-25T19:10:54.137Z,44.75
2023-05-25T19:13:22.814Z,43.42
2023-05-25T19:15:50.541Z,42.03
2023-05-25T19:18:17.578Z,50.20
2023-05-25T19:20:44.756Z,52.67
2023-05-25T19:23:11.740Z,36.63
2023-05-25T19:25:38.720Z,41.20
2023-05-25T19:28:05.819Z,44.17
2023-05-25T19:30:32.831Z,42.33
2023-05-25T19:32:59.985Z,48.28
2023-05-25T19:35:27.118Z,38.97
2023-05-25T19:37:54.032Z,44.78
2023-05-25T19:40:21.052Z,37.60
2023-05-25T19:42:47.897Z,43.40
2023-05-25T19:45:14.922Z,41.13
2023-05-25T19:47:42.120Z,40.45
2023-05-25T19:50:09.775Z,50.30
2023-05-25T19:52:36.605Z,38.03
2023-05-25T19:55:03.661Z,44.10
2023-05-25T19:57:30.575Z,62.42
2023-05-25T19:59:57.556Z,43.80
2023-05-25T20:02:24.777Z,41.53
2023-05-25T20:04:51.753Z,46.22
2023-05-25T20:07:18.642Z,46.58
2023-05-25T20:09:45.869Z,51.08
2023-05-25T20:12:13.727Z,44.30
2023-05-25T20:14:40.671Z,45.72
2023-05-25T20:17:07.588Z,54.90
2023-05-25T20:19:34.586Z,48.58
2023-05-25T20:22:02.441Z,38.60
2023-05-25T20:24:29.399Z,55.67
2023-05-25T20:26:56.855Z,44.05
2023-05-25T20:29:24.113Z,43.22
2023-05-25T20:31:51.750Z,48.80
2023-05-25T20:34:18.930Z,48.85
2023-05-25T20:36:45.872Z,48.22
2023-05-25T20:39:12.893Z,44.42
2023-05-25T20:41:39.779Z,42.13
2023-05-25T20:44:06.944Z,53.40
2023-05-25T20:46:34.125Z,40.08
2023-05-25T20:49:01.363Z,48.97
2023-05-25T20:51:28.173Z,51.95
2023-05-25T20:53:55.941Z,42.08
2023-05-25T20:56:22.880Z,47.72
2023-05-25T20:58:49.898Z,49.50
2023-05-25T21:01:16.821Z,38.00
2023-05-25T21:03:43.822Z,48.00
2023-05-25T21:06:10.920Z,46.78
2023-05-25T21:08:37.888Z,44.22
2023-05-25T21:11:04.780Z,49.38
2023-05-25T21:13:31.760Z,48.67
2023-05-25T21:15:58.890Z,40.08
2023-05-25T21:18:26.008Z,47.35
2023-05-25T21:20:52.889Z,50.90
2023-05-25T21:23:19.797Z,53.50
2023-05-25T21:25:46.999Z,48.45
2023-05-25T21:28:14.211Z,51.30
2023-05-25T21:30:41.102Z,44.03
2023-05-25T21:33:08.130Z,45.22
2023-05-25T21:35:35.181Z,47.40
2023-05-25T21:38:02.117Z,46.03
2023-05-25T21:40:29.034Z,46.90
2023-05-25T21:42:56.070Z,45.15
2023-05-25T21:45:23.065Z,48.75
2023-05-25T21:47:50.129Z,40.05
2023-05-25T21:50:17.079Z,39.40
2023-05-25T21:52:43.988Z,36.17
2023-05-25T21:55:10.889Z,42.25
2023-05-25T21:57:37.931Z,47.47
2023-05-25T22:00:06.541Z,44.70
2023-05-25T22:02:39.747Z,45.70
2023-05-25T22:05:07.171Z,42.53
2023-05-25T22:07:34.004Z,42.35
2023-05-25T22:10:00.963Z,41.17
2023-05-25T22:12:27.830Z,39.72
2023-05-25T22:14:54.733Z,48.47
2023-05-25T22:17:21.638Z,43.95
2023-05-25T22:19:59.110Z,41.13
2023-05-25T22:22:33.268Z,36.08
2023-05-25T22:25:00.207Z,41.00
2023-05-25T22:27:27.079Z,43.30
2023-05-25T22:29:53.900Z,35.10
2023-05-25T22:32:21.195Z,36.92
2023-05-25T22:34:48.145Z,33.65
2023-05-25T22:37:17.317Z,43.33
2023-05-25T22:39:44.533Z,36.55
2023-05-25T22:42:11.485Z,35.30
2023-05-25T22:44:38.518Z,43.65
2023-05-25T22:47:06.380Z,38.60
2023-05-25T22:49:41.245Z,45.30
2023-05-25T22:52:11.314Z,39.42
2023-05-25T22:54:38.410Z,42.42
2023-05-25T22:57:06.427Z,30.83
2023-05-25T22:59:33.370Z,37.75
2023-05-25T23:02:00.443Z,42.92
2023-05-25T23:04:27.674Z,41.00
2023-05-25T23:06:54.804Z,39.88
2023-05-25T23:09:21.682Z,38.60
2023-05-25T23:11:48.617Z,39.42
2023-05-25T23:14:15.495Z,32.28
2023-05-25T23:16:42.464Z,31.98
2023-05-25T23:19:09.418Z,42.13
2023-05-25T23:21:36.393Z,39.92
2023-05-25T23:24:03.341Z,43.83
2023-05-25T23:26:30.265Z,41.50
2023-05-25T23:28:57.219Z,38.00
2023-05-25T23:31:24.223Z,40.03
2023-05-25T23:33:51.140Z,39.78
2023-05-25T23:36:18.060Z,35.50
2023-05-25T23:38:46.364Z,32.45
2023-05-25T23:41:13.345Z,32.05
2023-05-25T23:43:40.329Z,36.45
2023-05-25T23:46:07.328Z,37.75
2023-05-25T23:48:34.219Z,33.72
2023-05-25T23:51:01.366Z,31.23
2023-05-25T23:53:28.194Z,35.58
2023-05-25T23:55:55.163Z,30.27
2023-05-25T23:58:22.083Z,35.08
